Terminal Aerodrome Forecast
Issued by NWS Louisville, KY

Home | Current Version | Previous Version | Text Only | Print | Product List | Glossary On
Versions: 1 2 3 4 5 6 7 8 9 10 11 12 13 14 15 16
711
FTUS43 KLMK 040248 AAA
TAFLEX
TAF AMD
KLEX 040248Z 0403/0424 29008KT P6SM SCT040
      TEMPO 0408/0410 BKN025
     FM041000 27007KT P6SM BKN022
     FM041800 29007KT P6SM BKN030=

USA.gov is the U.S. government's official web portal to all federal, state and local government web resources and services.